sensor_id;sensor_type;location;lat;lon;timestamp;P1;durP1;ratioP1;P2;durP2;ratioP2
64459;SDS011;50828;53.756;21.140;2022-12-20T00:04:01;57.80;;;23.40;;
64459;SDS011;50828;53.756;21.140;2022-12-20T00:09:10;68.50;;;26.30;;
64459;SDS011;50828;53.756;21.140;2022-12-20T00:14:18;75.60;;;29.20;;
64459;SDS011;50828;53.756;21.140;2022-12-20T00:19:26;75.00;;;27.30;;
64459;SDS011;50828;53.756;21.140;2022-12-20T00:24:36;64.20;;;25.40;;
64459;SDS011;50828;53.756;21.140;2022-12-20T00:29:44;75.90;;;25.60;;
64459;SDS011;50828;53.756;21.140;2022-12-20T00:34:54;75.00;;;24.90;;
64459;SDS011;50828;53.756;21.140;2022-12-20T00:40:02;73.70;;;26.50;;
64459;SDS011;50828;53.756;21.140;2022-12-20T00:45:11;72.20;;;25.00;;
64459;SDS011;50828;53.756;21.140;2022-12-20T00:50:20;75.80;;;27.60;;
64459;SDS011;50828;53.756;21.140;2022-12-20T00:55:30;72.10;;;26.10;;
64459;SDS011;50828;53.756;21.140;2022-12-20T01:00:38;74.00;;;25.50;;
64459;SDS011;50828;53.756;21.140;2022-12-20T01:05:53;80.50;;;25.90;;
64459;SDS011;50828;53.756;21.140;2022-12-20T01:11:03;68.40;;;26.50;;
64459;SDS011;50828;53.756;21.140;2022-12-20T01:16:14;69.10;;;25.00;;
64459;SDS011;50828;53.756;21.140;2022-12-20T01:21:25;71.00;;;25.50;;
64459;SDS011;50828;53.756;21.140;2022-12-20T01:26:34;63.20;;;23.20;;
64459;SDS011;50828;53.756;21.140;2022-12-20T01:31:42;61.00;;;23.60;;
64459;SDS011;50828;53.756;21.140;2022-12-20T01:36:51;60.60;;;23.20;;
64459;SDS011;50828;53.756;21.140;2022-12-20T01:41:59;47.20;;;20.30;;
64459;SDS011;50828;53.756;21.140;2022-12-20T01:47:08;54.80;;;19.50;;
64459;SDS011;50828;53.756;21.140;2022-12-20T01:52:19;48.00;;;19.60;;
64459;SDS011;50828;53.756;21.140;2022-12-20T01:57:33;44.50;;;17.90;;
64459;SDS011;50828;53.756;21.140;2022-12-20T02:02:47;34.70;;;16.10;;
64459;SDS011;50828;53.756;21.140;2022-12-20T02:07:56;42.00;;;17.70;;
64459;SDS011;50828;53.756;21.140;2022-12-20T02:13:06;38.70;;;15.30;;
64459;SDS011;50828;53.756;21.140;2022-12-20T02:18:26;34.80;;;14.90;;
64459;SDS011;50828;53.756;21.140;2022-12-20T02:29:32;30.60;;;13.20;;
64459;SDS011;50828;53.756;21.140;2022-12-20T02:34:43;27.10;;;13.40;;
64459;SDS011;50828;53.756;21.140;2022-12-20T02:39:51;27.20;;;11.90;;
64459;SDS011;50828;53.756;21.140;2022-12-20T02:45:00;24.50;;;11.80;;
64459;SDS011;50828;53.756;21.140;2022-12-20T02:50:26;19.50;;;10.80;;
64459;SDS011;50828;53.756;21.140;2022-12-20T02:55:40;20.10;;;11.00;;
64459;SDS011;50828;53.756;21.140;2022-12-20T03:00:52;21.40;;;10.60;;
64459;SDS011;50828;53.756;21.140;2022-12-20T03:06:08;19.20;;;9.60;;
64459;SDS011;50828;53.756;21.140;2022-12-20T03:11:16;18.50;;;9.70;;
64459;SDS011;50828;53.756;21.140;2022-12-20T03:16:25;20.90;;;9.50;;
64459;SDS011;50828;53.756;21.140;2022-12-20T03:21:34;15.30;;;9.00;;
64459;SDS011;50828;53.756;21.140;2022-12-20T03:26:42;18.20;;;9.10;;
64459;SDS011;50828;53.756;21.140;2022-12-20T03:31:53;13.90;;;8.10;;
64459;SDS011;50828;53.756;21.140;2022-12-20T03:37:03;15.50;;;8.30;;
64459;SDS011;50828;53.756;21.140;2022-12-20T03:42:11;15.40;;;8.10;;
64459;SDS011;50828;53.756;21.140;2022-12-20T03:47:20;12.70;;;7.20;;
64459;SDS011;50828;53.756;21.140;2022-12-20T03:52:28;16.70;;;8.40;;
64459;SDS011;50828;53.756;21.140;2022-12-20T03:57:36;13.90;;;7.80;;
64459;SDS011;50828;53.756;21.140;2022-12-20T04:03:08;19.20;;;9.10;;
64459;SDS011;50828;53.756;21.140;2022-12-20T04:08:17;14.00;;;7.80;;
64459;SDS011;50828;53.756;21.140;2022-12-20T04:13:26;14.80;;;7.80;;
64459;SDS011;50828;53.756;21.140;2022-12-20T04:18:35;12.10;;;7.10;;
64459;SDS011;50828;53.756;21.140;2022-12-20T04:23:45;13.00;;;8.40;;
64459;SDS011;50828;53.756;21.140;2022-12-20T04:28:53;17.20;;;9.10;;
64459;SDS011;50828;53.756;21.140;2022-12-20T04:34:02;15.50;;;9.20;;
64459;SDS011;50828;53.756;21.140;2022-12-20T04:39:11;23.50;;;10.70;;
64459;SDS011;50828;53.756;21.140;2022-12-20T04:44:36;25.80;;;12.10;;
64459;SDS011;50828;53.756;21.140;2022-12-20T04:49:45;25.20;;;12.30;;
64459;SDS011;50828;53.756;21.140;2022-12-20T04:54:54;29.10;;;13.50;;
64459;SDS011;50828;53.756;21.140;2022-12-20T05:00:08;27.00;;;13.10;;
64459;SDS011;50828;53.756;21.140;2022-12-20T05:05:21;27.80;;;13.70;;
64459;SDS011;50828;53.756;21.140;2022-12-20T05:10:30;31.00;;;15.20;;
64459;SDS011;50828;53.756;21.140;2022-12-20T05:15:40;32.00;;;14.30;;
64459;SDS011;50828;53.756;21.140;2022-12-20T05:20:49;32.20;;;15.20;;
64459;SDS011;50828;53.756;21.140;2022-12-20T05:26:21;38.50;;;16.40;;
64459;SDS011;50828;53.756;21.140;2022-12-20T05:31:30;39.20;;;17.30;;
64459;SDS011;50828;53.756;21.140;2022-12-20T05:36:40;39.80;;;18.30;;
64459;SDS011;50828;53.756;21.140;2022-12-20T05:41:48;41.70;;;18.70;;
64459;SDS011;50828;53.756;21.140;2022-12-20T05:46:59;43.80;;;19.20;;
64459;SDS011;50828;53.756;21.140;2022-12-20T05:52:10;41.50;;;19.30;;
64459;SDS011;50828;53.756;21.140;2022-12-20T05:57:18;48.00;;;20.60;;
64459;SDS011;50828;53.756;21.140;2022-12-20T06:02:26;51.80;;;19.90;;
64459;SDS011;50828;53.756;21.140;2022-12-20T06:07:39;45.50;;;19.70;;
64459;SDS011;50828;53.756;21.140;2022-12-20T06:12:49;45.80;;;20.60;;
64459;SDS011;50828;53.756;21.140;2022-12-20T06:18:00;53.60;;;21.70;;
64459;SDS011;50828;53.756;21.140;2022-12-20T06:23:09;48.40;;;19.90;;
64459;SDS011;50828;53.756;21.140;2022-12-20T06:28:25;50.50;;;21.10;;
64459;SDS011;50828;53.756;21.140;2022-12-20T06:33:34;50.40;;;21.30;;
64459;SDS011;50828;53.756;21.140;2022-12-20T06:38:43;55.20;;;22.60;;
64459;SDS011;50828;53.756;21.140;2022-12-20T06:43:51;52.50;;;22.60;;
64459;SDS011;50828;53.756;21.140;2022-12-20T06:49:00;49.50;;;21.80;;
64459;SDS011;50828;53.756;21.140;2022-12-20T06:54:09;49.50;;;21.30;;
64459;SDS011;50828;53.756;21.140;2022-12-20T06:59:17;56.60;;;23.90;;
64459;SDS011;50828;53.756;21.140;2022-12-20T07:04:25;51.30;;;22.20;;
64459;SDS011;50828;53.756;21.140;2022-12-20T07:09:33;54.00;;;21.20;;
64459;SDS011;50828;53.756;21.140;2022-12-20T07:14:45;59.40;;;21.90;;
64459;SDS011;50828;53.756;21.140;2022-12-20T07:19:54;54.20;;;23.00;;
64459;SDS011;50828;53.756;21.140;2022-12-20T07:25:04;54.90;;;23.50;;
64459;SDS011;50828;53.756;21.140;2022-12-20T07:35:21;63.20;;;25.00;;
64459;SDS011;50828;53.756;21.140;2022-12-20T07:40:29;55.90;;;23.70;;
64459;SDS011;50828;53.756;21.140;2022-12-20T07:45:40;55.70;;;24.10;;
64459;SDS011;50828;53.756;21.140;2022-12-20T07:50:49;56.00;;;23.60;;
64459;SDS011;50828;53.756;21.140;2022-12-20T07:56:02;53.40;;;24.00;;
64459;SDS011;50828;53.756;21.140;2022-12-20T08:01:14;55.50;;;24.00;;
64459;SDS011;50828;53.756;21.140;2022-12-20T08:06:23;53.80;;;23.70;;
64459;SDS011;50828;53.756;21.140;2022-12-20T08:11:31;56.30;;;24.00;;
64459;SDS011;50828;53.756;21.140;2022-12-20T08:16:41;53.90;;;24.60;;
64459;SDS011;50828;53.756;21.140;2022-12-20T08:21:51;52.00;;;23.10;;
64459;SDS011;50828;53.756;21.140;2022-12-20T08:26:59;54.60;;;23.40;;
64459;SDS011;50828;53.756;21.140;2022-12-20T08:32:07;52.00;;;22.20;;
64459;SDS011;50828;53.756;21.140;2022-12-20T08:37:17;55.80;;;22.90;;
64459;SDS011;50828;53.756;21.140;2022-12-20T08:42:25;59.20;;;21.80;;
64459;SDS011;50828;53.756;21.140;2022-12-20T08:47:33;54.20;;;22.30;;
64459;SDS011;50828;53.756;21.140;2022-12-20T08:52:41;50.80;;;21.80;;
64459;SDS011;50828;53.756;21.140;2022-12-20T08:57:50;61.00;;;24.20;;
64459;SDS011;50828;53.756;21.140;2022-12-20T09:02:57;52.90;;;22.70;;
64459;SDS011;50828;53.756;21.140;2022-12-20T09:08:05;57.80;;;23.30;;
64459;SDS011;50828;53.756;21.140;2022-12-20T09:13:13;51.30;;;22.10;;
64459;SDS011;50828;53.756;21.140;2022-12-20T09:18:22;50.90;;;21.00;;
64459;SDS011;50828;53.756;21.140;2022-12-20T09:23:30;51.00;;;21.40;;
64459;SDS011;50828;53.756;21.140;2022-12-20T09:28:40;51.50;;;21.80;;
64459;SDS011;50828;53.756;21.140;2022-12-20T09:33:49;49.10;;;22.70;;
64459;SDS011;50828;53.756;21.140;2022-12-20T09:38:58;58.60;;;22.60;;
64459;SDS011;50828;53.756;21.140;2022-12-20T09:44:09;51.10;;;22.30;;
64459;SDS011;50828;53.756;21.140;2022-12-20T09:49:25;46.70;;;21.50;;
64459;SDS011;50828;53.756;21.140;2022-12-20T09:54:36;52.40;;;21.80;;
64459;SDS011;50828;53.756;21.140;2022-12-20T09:59:55;58.10;;;22.20;;
64459;SDS011;50828;53.756;21.140;2022-12-20T10:05:07;57.10;;;21.80;;
64459;SDS011;50828;53.756;21.140;2022-12-20T10:10:29;56.30;;;21.50;;
64459;SDS011;50828;53.756;21.140;2022-12-20T10:15:51;59.30;;;23.10;;
64459;SDS011;50828;53.756;21.140;2022-12-20T10:26:13;49.50;;;21.50;;
64459;SDS011;50828;53.756;21.140;2022-12-20T10:31:21;52.20;;;21.90;;
64459;SDS011;50828;53.756;21.140;2022-12-20T10:36:29;49.40;;;21.30;;
64459;SDS011;50828;53.756;21.140;2022-12-20T10:41:47;53.60;;;22.40;;
64459;SDS011;50828;53.756;21.140;2022-12-20T10:46:55;58.00;;;22.40;;
64459;SDS011;50828;53.756;21.140;2022-12-20T10:52:11;54.10;;;21.70;;
64459;SDS011;50828;53.756;21.140;2022-12-20T10:57:21;50.70;;;20.10;;
64459;SDS011;50828;53.756;21.140;2022-12-20T11:02:31;49.80;;;21.30;;
64459;SDS011;50828;53.756;21.140;2022-12-20T11:07:52;49.40;;;20.60;;
64459;SDS011;50828;53.756;21.140;2022-12-20T11:13:24;46.50;;;20.00;;
64459;SDS011;50828;53.756;21.140;2022-12-20T11:18:37;47.50;;;21.10;;
64459;SDS011;50828;53.756;21.140;2022-12-20T11:23:55;47.00;;;20.90;;
64459;SDS011;50828;53.756;21.140;2022-12-20T11:29:18;51.10;;;21.60;;
64459;SDS011;50828;53.756;21.140;2022-12-20T11:34:41;46.30;;;19.50;;
64459;SDS011;50828;53.756;21.140;2022-12-20T11:40:04;51.40;;;22.00;;
64459;SDS011;50828;53.756;21.140;2022-12-20T11:45:23;51.00;;;20.40;;
64459;SDS011;50828;53.756;21.140;2022-12-20T11:50:47;50.10;;;22.20;;
64459;SDS011;50828;53.756;21.140;2022-12-20T11:56:05;53.20;;;21.00;;
64459;SDS011;50828;53.756;21.140;2022-12-20T12:01:17;55.90;;;23.10;;
64459;SDS011;50828;53.756;21.140;2022-12-20T12:06:29;53.90;;;21.40;;
64459;SDS011;50828;53.756;21.140;2022-12-20T12:11:40;49.90;;;20.90;;
64459;SDS011;50828;53.756;21.140;2022-12-20T12:17:11;59.50;;;22.50;;
64459;SDS011;50828;53.756;21.140;2022-12-20T12:22:23;50.80;;;21.50;;
64459;SDS011;50828;53.756;21.140;2022-12-20T12:27:37;47.00;;;21.10;;
64459;SDS011;50828;53.756;21.140;2022-12-20T12:32:46;51.90;;;20.70;;
64459;SDS011;50828;53.756;21.140;2022-12-20T12:38:04;57.10;;;21.30;;
64459;SDS011;50828;53.756;21.140;2022-12-20T12:43:47;52.30;;;20.90;;
64459;SDS011;50828;53.756;21.140;2022-12-20T12:48:58;45.20;;;20.40;;
64459;SDS011;50828;53.756;21.140;2022-12-20T12:54:17;50.50;;;21.80;;
64459;SDS011;50828;53.756;21.140;2022-12-20T13:04:53;57.20;;;21.80;;
64459;SDS011;50828;53.756;21.140;2022-12-20T13:16:05;50.40;;;21.30;;
64459;SDS011;50828;53.756;21.140;2022-12-20T13:26:50;51.40;;;23.10;;
64459;SDS011;50828;53.756;21.140;2022-12-20T13:31:59;54.50;;;22.60;;
64459;SDS011;50828;53.756;21.140;2022-12-20T13:42:36;54.10;;;22.40;;
64459;SDS011;50828;53.756;21.140;2022-12-20T13:47:47;51.50;;;23.20;;
64459;SDS011;50828;53.756;21.140;2022-12-20T13:52:58;48.90;;;20.70;;
64459;SDS011;50828;53.756;21.140;2022-12-20T13:58:15;51.30;;;21.70;;
64459;SDS011;50828;53.756;21.140;2022-12-20T14:03:24;55.00;;;24.90;;
64459;SDS011;50828;53.756;21.140;2022-12-20T14:08:35;57.10;;;23.30;;
64459;SDS011;50828;53.756;21.140;2022-12-20T14:13:51;54.20;;;22.50;;
64459;SDS011;50828;53.756;21.140;2022-12-20T14:19:01;53.30;;;22.20;;
64459;SDS011;50828;53.756;21.140;2022-12-20T14:24:11;52.00;;;22.20;;
64459;SDS011;50828;53.756;21.140;2022-12-20T14:29:23;51.10;;;21.50;;
64459;SDS011;50828;53.756;21.140;2022-12-20T14:34:36;57.70;;;23.70;;
64459;SDS011;50828;53.756;21.140;2022-12-20T14:39:54;57.70;;;24.40;;
64459;SDS011;50828;53.756;21.140;2022-12-20T14:45:15;57.10;;;24.20;;
64459;SDS011;50828;53.756;21.140;2022-12-20T14:50:27;62.30;;;23.80;;
64459;SDS011;50828;53.756;21.140;2022-12-20T14:55:38;56.50;;;22.90;;
64459;SDS011;50828;53.756;21.140;2022-12-20T15:00:55;58.20;;;23.50;;
64459;SDS011;50828;53.756;21.140;2022-12-20T15:06:06;57.10;;;23.90;;
64459;SDS011;50828;53.756;21.140;2022-12-20T15:11:44;56.10;;;23.30;;
64459;SDS011;50828;53.756;21.140;2022-12-20T15:16:54;51.60;;;22.20;;
64459;SDS011;50828;53.756;21.140;2022-12-20T15:22:02;56.40;;;23.40;;
64459;SDS011;50828;53.756;21.140;2022-12-20T15:27:11;56.90;;;23.00;;
64459;SDS011;50828;53.756;21.140;2022-12-20T15:32:20;55.30;;;23.40;;
64459;SDS011;50828;53.756;21.140;2022-12-20T15:37:32;52.70;;;20.90;;
64459;SDS011;50828;53.756;21.140;2022-12-20T15:42:40;54.50;;;21.90;;
64459;SDS011;50828;53.756;21.140;2022-12-20T15:47:48;58.30;;;23.80;;
64459;SDS011;50828;53.756;21.140;2022-12-20T15:52:57;57.10;;;24.80;;
64459;SDS011;50828;53.756;21.140;2022-12-20T15:58:05;58.30;;;22.90;;
64459;SDS011;50828;53.756;21.140;2022-12-20T16:03:16;54.40;;;24.00;;
64459;SDS011;50828;53.756;21.140;2022-12-20T16:08:25;52.70;;;23.00;;
64459;SDS011;50828;53.756;21.140;2022-12-20T16:13:33;55.50;;;23.10;;
64459;SDS011;50828;53.756;21.140;2022-12-20T16:18:41;56.40;;;22.80;;
64459;SDS011;50828;53.756;21.140;2022-12-20T16:23:49;56.60;;;23.70;;
64459;SDS011;50828;53.756;21.140;2022-12-20T16:28:58;52.40;;;23.40;;
64459;SDS011;50828;53.756;21.140;2022-12-20T16:34:06;55.30;;;23.90;;
64459;SDS011;50828;53.756;21.140;2022-12-20T16:39:17;62.60;;;25.10;;
64459;SDS011;50828;53.756;21.140;2022-12-20T16:44:26;55.40;;;23.10;;
64459;SDS011;50828;53.756;21.140;2022-12-20T16:49:34;61.40;;;24.80;;
64459;SDS011;50828;53.756;21.140;2022-12-20T16:54:44;57.80;;;24.60;;
64459;SDS011;50828;53.756;21.140;2022-12-20T16:59:52;62.80;;;26.40;;
64459;SDS011;50828;53.756;21.140;2022-12-20T17:05:00;55.60;;;24.10;;
64459;SDS011;50828;53.756;21.140;2022-12-20T17:10:08;58.30;;;26.60;;
64459;SDS011;50828;53.756;21.140;2022-12-20T17:15:21;65.50;;;24.60;;
64459;SDS011;50828;53.756;21.140;2022-12-20T17:20:30;59.90;;;24.40;;
64459;SDS011;50828;53.756;21.140;2022-12-20T17:25:39;58.70;;;25.70;;
64459;SDS011;50828;53.756;21.140;2022-12-20T17:30:56;57.50;;;25.40;;
64459;SDS011;50828;53.756;21.140;2022-12-20T17:36:11;59.60;;;24.60;;
64459;SDS011;50828;53.756;21.140;2022-12-20T17:41:22;65.80;;;23.70;;
64459;SDS011;50828;53.756;21.140;2022-12-20T17:46:31;64.70;;;26.30;;
64459;SDS011;50828;53.756;21.140;2022-12-20T17:51:40;64.50;;;26.10;;
64459;SDS011;50828;53.756;21.140;2022-12-20T17:56:49;65.60;;;26.00;;
64459;SDS011;50828;53.756;21.140;2022-12-20T18:01:57;67.10;;;26.90;;
64459;SDS011;50828;53.756;21.140;2022-12-20T18:07:05;64.80;;;27.60;;
64459;SDS011;50828;53.756;21.140;2022-12-20T18:12:14;71.20;;;27.10;;
64459;SDS011;50828;53.756;21.140;2022-12-20T18:17:21;71.20;;;26.90;;
64459;SDS011;50828;53.756;21.140;2022-12-20T18:22:29;65.60;;;27.00;;
64459;SDS011;50828;53.756;21.140;2022-12-20T18:27:39;64.10;;;26.00;;
64459;SDS011;50828;53.756;21.140;2022-12-20T18:32:47;67.90;;;28.60;;
64459;SDS011;50828;53.756;21.140;2022-12-20T18:37:55;73.00;;;28.80;;
64459;SDS011;50828;53.756;21.140;2022-12-20T18:43:02;63.40;;;25.90;;
64459;SDS011;50828;53.756;21.140;2022-12-20T18:48:10;61.60;;;26.40;;
64459;SDS011;50828;53.756;21.140;2022-12-20T18:53:18;63.10;;;26.70;;
64459;SDS011;50828;53.756;21.140;2022-12-20T18:58:25;79.20;;;29.40;;
64459;SDS011;50828;53.756;21.140;2022-12-20T19:03:33;66.70;;;27.60;;
64459;SDS011;50828;53.756;21.140;2022-12-20T19:08:41;73.20;;;28.00;;
64459;SDS011;50828;53.756;21.140;2022-12-20T19:13:49;70.70;;;27.90;;
64459;SDS011;50828;53.756;21.140;2022-12-20T19:18:57;69.20;;;27.30;;
64459;SDS011;50828;53.756;21.140;2022-12-20T19:24:06;64.50;;;27.20;;
64459;SDS011;50828;53.756;21.140;2022-12-20T19:29:15;66.20;;;29.30;;
64459;SDS011;50828;53.756;21.140;2022-12-20T19:34:23;65.60;;;28.70;;
64459;SDS011;50828;53.756;21.140;2022-12-20T19:39:30;64.80;;;26.30;;
64459;SDS011;50828;53.756;21.140;2022-12-20T19:44:38;64.60;;;27.60;;
64459;SDS011;50828;53.756;21.140;2022-12-20T19:49:46;75.10;;;29.40;;
64459;SDS011;50828;53.756;21.140;2022-12-20T19:55:01;72.40;;;29.70;;
64459;SDS011;50828;53.756;21.140;2022-12-20T20:00:09;68.20;;;28.50;;
64459;SDS011;50828;53.756;21.140;2022-12-20T20:05:18;71.60;;;29.70;;
64459;SDS011;50828;53.756;21.140;2022-12-20T20:10:26;67.90;;;29.40;;
64459;SDS011;50828;53.756;21.140;2022-12-20T20:15:34;70.80;;;29.00;;
64459;SDS011;50828;53.756;21.140;2022-12-20T20:20:42;70.90;;;29.80;;
64459;SDS011;50828;53.756;21.140;2022-12-20T20:25:50;76.40;;;31.60;;
64459;SDS011;50828;53.756;21.140;2022-12-20T20:31:00;77.00;;;31.50;;
64459;SDS011;50828;53.756;21.140;2022-12-20T20:36:09;73.10;;;31.00;;
64459;SDS011;50828;53.756;21.140;2022-12-20T20:41:19;68.30;;;29.50;;
64459;SDS011;50828;53.756;21.140;2022-12-20T20:46:27;68.40;;;29.90;;
64459;SDS011;50828;53.756;21.140;2022-12-20T20:51:35;74.30;;;29.80;;
64459;SDS011;50828;53.756;21.140;2022-12-20T20:56:43;74.60;;;31.50;;
64459;SDS011;50828;53.756;21.140;2022-12-20T21:01:50;77.60;;;31.50;;
64459;SDS011;50828;53.756;21.140;2022-12-20T21:06:58;74.20;;;28.80;;
64459;SDS011;50828;53.756;21.140;2022-12-20T21:12:06;77.20;;;29.40;;
64459;SDS011;50828;53.756;21.140;2022-12-20T21:17:14;69.80;;;29.50;;
64459;SDS011;50828;53.756;21.140;2022-12-20T21:22:22;68.90;;;30.60;;
64459;SDS011;50828;53.756;21.140;2022-12-20T21:27:30;76.60;;;31.10;;
64459;SDS011;50828;53.756;21.140;2022-12-20T21:32:37;73.40;;;30.20;;
64459;SDS011;50828;53.756;21.140;2022-12-20T21:37:46;75.60;;;31.10;;
64459;SDS011;50828;53.756;21.140;2022-12-20T21:42:54;64.70;;;28.70;;
64459;SDS011;50828;53.756;21.140;2022-12-20T21:48:01;67.50;;;29.00;;
64459;SDS011;50828;53.756;21.140;2022-12-20T21:53:09;73.20;;;29.70;;
64459;SDS011;50828;53.756;21.140;2022-12-20T22:03:27;67.40;;;29.70;;
64459;SDS011;50828;53.756;21.140;2022-12-20T22:08:35;72.20;;;30.00;;
64459;SDS011;50828;53.756;21.140;2022-12-20T22:13:43;67.20;;;29.10;;
64459;SDS011;50828;53.756;21.140;2022-12-20T22:18:51;71.30;;;28.40;;
64459;SDS011;50828;53.756;21.140;2022-12-20T22:24:00;69.50;;;27.70;;
64459;SDS011;50828;53.756;21.140;2022-12-20T22:29:08;68.20;;;28.20;;
64459;SDS011;50828;53.756;21.140;2022-12-20T22:34:16;62.50;;;27.60;;
64459;SDS011;50828;53.756;21.140;2022-12-20T22:39:23;65.10;;;27.60;;
64459;SDS011;50828;53.756;21.140;2022-12-20T22:44:31;64.50;;;28.50;;
64459;SDS011;50828;53.756;21.140;2022-12-20T22:49:39;71.10;;;29.90;;
64459;SDS011;50828;53.756;21.140;2022-12-20T22:54:48;61.80;;;27.90;;
64459;SDS011;50828;53.756;21.140;2022-12-20T23:00:07;71.40;;;28.00;;
64459;SDS011;50828;53.756;21.140;2022-12-20T23:05:17;63.70;;;28.50;;
64459;SDS011;50828;53.756;21.140;2022-12-20T23:10:24;66.90;;;29.50;;
64459;SDS011;50828;53.756;21.140;2022-12-20T23:15:49;69.60;;;28.70;;
64459;SDS011;50828;53.756;21.140;2022-12-20T23:20:58;67.20;;;29.20;;
64459;SDS011;50828;53.756;21.140;2022-12-20T23:26:23;61.90;;;28.00;;
64459;SDS011;50828;53.756;21.140;2022-12-20T23:31:30;66.50;;;28.90;;
64459;SDS011;50828;53.756;21.140;2022-12-20T23:36:38;70.80;;;28.10;;
64459;SDS011;50828;53.756;21.140;2022-12-20T23:41:46;64.30;;;28.90;;
64459;SDS011;50828;53.756;21.140;2022-12-20T23:46:54;57.80;;;28.70;;
64459;SDS011;50828;53.756;21.140;2022-12-20T23:52:02;77.00;;;29.80;;
64459;SDS011;50828;53.756;21.140;2022-12-20T23:57:11;63.70;;;28.60;;
